createdAt,value
2023-03-20T00:02:07.683Z,16.98
2023-03-20T00:04:37.161Z,16.92
2023-03-20T00:09:33.856Z,16.55
2023-03-20T00:12:02.156Z,16.92
2023-03-20T00:14:30.328Z,17.25
2023-03-20T00:16:58.587Z,17.58
2023-03-20T00:19:29.362Z,18.05
2023-03-20T00:21:59.771Z,18.20
2023-03-20T00:24:27.824Z,17.77
2023-03-20T00:26:56.013Z,17.50
2023-03-20T00:29:26.160Z,18.50
2023-03-20T00:31:55.119Z,18.10
2023-03-20T00:34:25.795Z,13.15
2023-03-20T00:36:55.016Z,16.85
2023-03-20T00:39:24.707Z,16.40
2023-03-20T00:41:56.035Z,16.40
2023-03-20T00:44:27.307Z,17.88
2023-03-20T00:46:57.578Z,17.83
2023-03-20T00:49:28.948Z,19.17
2023-03-20T00:51:58.054Z,18.77
2023-03-20T00:54:27.955Z,18.85
2023-03-20T00:56:59.296Z,19.67
2023-03-20T00:59:31.960Z,19.52
2023-03-20T01:02:00.541Z,18.50
2023-03-20T01:04:36.788Z,18.60
2023-03-20T01:07:08.422Z,19.83
2023-03-20T01:09:37.926Z,19.92
2023-03-20T01:14:36.488Z,20.52
2023-03-20T01:17:04.803Z,22.08
2023-03-20T01:19:32.861Z,20.05
2023-03-20T01:22:02.779Z,21.10
2023-03-20T01:24:30.927Z,20.10
2023-03-20T01:27:03.643Z,21.42
2023-03-20T01:29:33.137Z,20.02
2023-03-20T01:34:29.258Z,20.83
2023-03-20T01:36:59.218Z,20.33
2023-03-20T01:39:33.590Z,20.30
2023-03-20T01:42:05.751Z,19.95
2023-03-20T01:44:36.417Z,21.02
2023-03-20T01:47:13.210Z,19.80
2023-03-20T01:50:22.254Z,20.67
2023-03-20T01:52:53.317Z,19.70
2023-03-20T01:55:22.900Z,18.85
2023-03-20T02:00:23.893Z,18.45
2023-03-20T02:02:52.083Z,19.70
2023-03-20T02:05:23.020Z,20.05
2023-03-20T02:08:03.020Z,19.70
2023-03-20T02:10:32.056Z,18.58
2023-03-20T02:13:04.169Z,19.17
2023-03-20T02:15:33.269Z,18.92
2023-03-20T02:18:01.673Z,19.48
2023-03-20T02:20:46.988Z,20.73
2023-03-20T02:23:56.317Z,19.70
2023-03-20T02:26:40.118Z,18.38
2023-03-20T02:29:30.358Z,18.73
2023-03-20T02:32:33.959Z,19.40
2023-03-20T02:35:35.946Z,17.70
2023-03-20T02:38:27.245Z,17.75
2023-03-20T02:41:03.333Z,17.80
2023-03-20T02:43:42.328Z,18.30
2023-03-20T02:46:19.747Z,19.10
2023-03-20T02:48:55.625Z,18.58
2023-03-20T02:51:33.417Z,18.00
2023-03-20T02:54:09.071Z,18.42
2023-03-20T02:56:44.801Z,15.63
2023-03-20T02:59:21.801Z,15.77
2023-03-20T03:01:55.595Z,15.80
2023-03-20T03:04:27.392Z,15.38
2023-03-20T03:06:59.318Z,14.52
2023-03-20T03:09:32.922Z,13.82
2023-03-20T03:12:05.841Z,15.82
2023-03-20T03:14:38.795Z,15.52
2023-03-20T03:17:09.583Z,16.40
2023-03-20T03:19:39.819Z,14.90
2023-03-20T03:22:08.748Z,16.67
2023-03-20T03:24:41.896Z,14.63
2023-03-20T03:27:18.518Z,16.95
2023-03-20T03:29:51.484Z,16.08
2023-03-20T03:32:30.448Z,17.90
2023-03-20T03:35:00.719Z,17.45
2023-03-20T03:37:40.849Z,16.23
2023-03-20T03:40:21.477Z,17.05
2023-03-20T03:42:57.095Z,15.48
2023-03-20T03:45:31.506Z,15.48
2023-03-20T03:48:05.817Z,16.05
2023-03-20T03:50:38.785Z,15.77
2023-03-20T03:53:11.953Z,16.55
2023-03-20T03:55:44.930Z,15.15
2023-03-20T03:58:16.677Z,16.45
2023-03-20T04:00:47.959Z,17.73
2023-03-20T04:03:17.254Z,17.33
2023-03-20T04:05:47.390Z,16.77
2023-03-20T04:08:16.280Z,17.98
2023-03-20T04:10:45.999Z,16.70
2023-03-20T04:13:14.078Z,17.70
2023-03-20T04:15:42.431Z,16.50
2023-03-20T04:18:17.242Z,16.40
2023-03-20T04:20:45.683Z,15.38
2023-03-20T04:23:14.037Z,14.32
2023-03-20T04:25:42.611Z,13.65
2023-03-20T04:28:16.201Z,13.77
2023-03-20T04:30:48.174Z,15.20
2023-03-20T04:33:16.463Z,14.10
2023-03-20T04:35:44.662Z,13.82
2023-03-20T04:38:12.892Z,13.25
2023-03-20T04:40:41.255Z,14.07
2023-03-20T04:43:09.315Z,14.18
2023-03-20T04:45:39.495Z,13.95
2023-03-20T04:48:08.362Z,13.60
2023-03-20T04:50:36.481Z,13.80
2023-03-20T04:53:04.518Z,14.18
2023-03-20T04:55:32.678Z,15.38
2023-03-20T04:58:00.912Z,13.43
2023-03-20T05:00:28.976Z,14.38
2023-03-20T05:02:58.467Z,15.80
2023-03-20T05:05:27.057Z,14.75
2023-03-20T05:07:55.303Z,17.27
2023-03-20T05:10:23.425Z,17.50
2023-03-20T05:12:51.582Z,18.60
2023-03-20T05:15:19.721Z,19.27
2023-03-20T05:17:50.531Z,18.58
2023-03-20T05:20:21.561Z,20.55
2023-03-20T05:22:51.376Z,16.02
2023-03-20T05:25:19.550Z,15.77
2023-03-20T05:27:48.067Z,15.38
2023-03-20T05:30:16.868Z,14.95
2023-03-20T05:32:44.970Z,16.50
2023-03-20T05:35:13.446Z,16.80
2023-03-20T05:37:42.905Z,15.65
2023-03-20T05:40:13.581Z,15.35
2023-03-20T05:42:41.612Z,13.73
2023-03-20T05:45:10.626Z,14.10
2023-03-20T05:47:38.699Z,13.73
2023-03-20T05:50:07.437Z,14.00
2023-03-20T05:52:35.711Z,11.32
2023-03-20T05:55:05.791Z,13.70
2023-03-20T05:57:33.821Z,14.00
2023-03-20T06:00:01.880Z,14.85
2023-03-20T06:02:29.927Z,13.52
2023-03-20T06:04:58.074Z,13.80
2023-03-20T06:07:26.172Z,16.10
2023-03-20T06:09:54.250Z,17.73
2023-03-20T06:12:24.044Z,16.02
2023-03-20T06:14:52.087Z,19.15
2023-03-20T06:17:20.304Z,18.85
2023-03-20T06:19:48.417Z,17.92
2023-03-20T06:22:16.496Z,20.83
2023-03-20T06:24:44.665Z,19.17
2023-03-20T06:27:12.800Z,19.23
2023-03-20T06:29:42.201Z,19.00
2023-03-20T06:32:12.296Z,20.45
2023-03-20T06:34:40.364Z,23.38
2023-03-20T06:37:08.453Z,20.42
2023-03-20T06:39:36.844Z,20.30
2023-03-20T06:42:05.101Z,18.80
2023-03-20T06:44:33.152Z,18.45
2023-03-20T06:47:02.596Z,19.42
2023-03-20T06:49:30.701Z,17.15
2023-03-20T06:51:59.372Z,17.52
2023-03-20T06:54:28.049Z,15.80
2023-03-20T06:56:56.139Z,15.83
2023-03-20T06:59:24.582Z,14.95
2023-03-20T07:01:52.726Z,15.68
2023-03-20T07:04:22.342Z,15.75
2023-03-20T07:09:18.638Z,14.00
2023-03-20T07:11:46.902Z,14.52
2023-03-20T07:14:15.005Z,13.88
2023-03-20T07:16:43.090Z,11.05
2023-03-20T07:19:13.137Z,12.77
2023-03-20T07:21:42.661Z,11.02
2023-03-20T07:26:38.659Z,11.10
2023-03-20T07:29:06.746Z,11.27
2023-03-20T07:31:34.864Z,10.30
2023-03-20T07:34:02.971Z,11.18
2023-03-20T07:36:31.014Z,11.02
2023-03-20T07:39:00.711Z,10.68
2023-03-20T07:41:28.812Z,11.07
2023-03-20T07:43:56.862Z,9.27
2023-03-20T07:46:25.465Z,8.38
2023-03-20T07:48:53.788Z,6.60
2023-03-20T07:51:21.839Z,7.25
2023-03-20T07:53:49.906Z,5.60
2023-03-20T07:56:19.335Z,4.03
2023-03-20T08:01:15.294Z,4.38
2023-03-20T08:03:43.577Z,3.90
2023-03-20T08:06:11.774Z,3.55
2023-03-20T08:08:40.549Z,3.20
2023-03-20T08:11:08.818Z,3.45
2023-03-20T08:13:38.282Z,3.08
2023-03-20T08:18:34.910Z,2.78
2023-03-20T08:21:03.065Z,2.60
2023-03-20T08:23:31.217Z,2.60
2023-03-20T08:25:59.279Z,2.60
2023-03-20T08:28:45.954Z,2.92
2023-03-20T08:31:17.717Z,2.88
2023-03-20T08:33:46.386Z,2.60
2023-03-20T08:36:15.935Z,2.50
2023-03-20T08:38:44.506Z,2.55
2023-03-20T08:41:12.610Z,2.72
2023-03-20T08:43:41.056Z,2.72
2023-03-20T08:46:09.794Z,2.38
2023-03-20T08:48:39.354Z,2.65
2023-03-20T08:53:35.603Z,2.50
2023-03-20T08:56:03.674Z,3.30
2023-03-20T08:58:31.792Z,2.58
2023-03-20T09:01:05.342Z,3.10
2023-03-20T09:03:33.441Z,2.30
2023-03-20T09:06:02.904Z,2.83
2023-03-20T09:08:32.097Z,2.88
2023-03-20T09:11:00.566Z,2.80
2023-03-20T09:13:28.630Z,2.45
2023-03-20T09:15:58.185Z,1.98
2023-03-20T09:18:26.987Z,1.90
2023-03-20T09:20:56.491Z,2.00
2023-03-20T09:23:26.018Z,2.00
2023-03-20T09:28:21.961Z,5.25
2023-03-20T09:30:50.097Z,4.03
2023-03-20T09:33:18.756Z,1.98
2023-03-20T09:35:46.985Z,3.17
2023-03-20T09:38:15.591Z,2.53
2023-03-20T09:40:53.209Z,1.73
2023-03-20T09:43:34.117Z,2.22
2023-03-20T09:46:13.976Z,1.58
2023-03-20T09:48:47.530Z,2.25
2023-03-20T09:51:25.188Z,2.00
2023-03-20T09:53:59.288Z,2.00
2023-03-20T09:56:31.966Z,3.65
2023-03-20T09:59:02.426Z,2.47
2023-03-20T10:01:34.182Z,2.10
2023-03-20T10:04:07.632Z,1.95
2023-03-20T10:06:36.003Z,2.13
2023-03-20T10:09:13.083Z,2.00
2023-03-20T10:11:57.165Z,2.67
2023-03-20T10:14:34.884Z,2.15
2023-03-20T10:17:14.897Z,2.40
2023-03-20T10:19:47.220Z,2.45
2023-03-20T10:22:25.303Z,2.28
2023-03-20T10:24:57.725Z,2.50
2023-03-20T10:27:32.736Z,2.15
2023-03-20T10:30:20.935Z,2.63
2023-03-20T10:32:55.654Z,2.50
2023-03-20T10:35:29.702Z,2.42
2023-03-20T10:38:11.425Z,2.50
2023-03-20T10:40:41.688Z,2.70
2023-03-20T10:43:17.809Z,1.77
2023-03-20T10:45:49.277Z,2.30
2023-03-20T10:48:22.479Z,2.22
2023-03-20T10:50:54.709Z,2.33
2023-03-20T10:53:30.404Z,2.35
2023-03-20T10:56:01.833Z,2.25
2023-03-20T10:58:35.098Z,2.30
2023-03-20T11:01:03.483Z,1.85
2023-03-20T11:03:32.869Z,2.27
2023-03-20T11:06:09.706Z,2.58
2023-03-20T11:08:41.220Z,2.65
2023-03-20T11:11:09.880Z,2.45
2023-03-20T11:13:42.555Z,2.08
2023-03-20T11:16:21.275Z,1.65
2023-03-20T11:18:50.531Z,1.80
2023-03-20T11:23:49.404Z,1.85
2023-03-20T11:26:19.923Z,1.67
2023-03-20T11:28:53.161Z,2.70
2023-03-20T11:31:26.934Z,2.70
2023-03-20T11:34:10.985Z,2.30
2023-03-20T11:36:41.302Z,1.77
2023-03-20T11:39:15.245Z,3.92
2023-03-20T11:41:49.099Z,7.78
2023-03-20T11:44:27.959Z,4.00
2023-03-20T11:46:57.882Z,4.03
2023-03-20T11:49:29.259Z,2.67
2023-03-20T11:52:01.930Z,3.88
2023-03-20T11:54:31.281Z,2.53
2023-03-20T11:59:34.038Z,2.20
2023-03-20T12:02:03.955Z,2.08
2023-03-20T12:04:34.656Z,2.10
2023-03-20T12:07:11.105Z,2.50
2023-03-20T12:09:43.754Z,2.60
2023-03-20T12:12:25.406Z,2.30
2023-03-20T12:15:02.224Z,2.10
2023-03-20T12:17:43.529Z,2.10
2023-03-20T12:20:29.036Z,2.25
2023-03-20T12:23:03.883Z,1.90
2023-03-20T12:25:39.372Z,2.22
2023-03-20T12:28:15.418Z,2.15
2023-03-20T12:30:55.848Z,2.40
2023-03-20T12:33:44.038Z,2.67
2023-03-20T12:36:16.566Z,2.60
2023-03-20T12:38:46.432Z,2.50
2023-03-20T12:41:17.459Z,1.95
2023-03-20T12:44:01.113Z,2.15
2023-03-20T12:46:36.422Z,2.17
2023-03-20T12:49:14.073Z,2.05
2023-03-20T12:51:53.367Z,2.30
2023-03-20T12:57:05.676Z,1.85
2023-03-20T12:59:45.906Z,1.67
2023-03-20T13:02:26.836Z,1.83
2023-03-20T13:05:03.054Z,2.05
2023-03-20T13:07:44.377Z,2.03
2023-03-20T13:10:21.724Z,1.90
2023-03-20T13:13:01.803Z,1.88
2023-03-20T13:15:42.227Z,2.10
2023-03-20T13:18:20.599Z,2.30
2023-03-20T13:20:52.813Z,5.07
2023-03-20T13:23:27.260Z,2.30
2023-03-20T13:26:11.517Z,2.30
2023-03-20T13:28:48.523Z,2.45
2023-03-20T13:31:27.085Z,2.42
2023-03-20T13:34:03.566Z,2.58
2023-03-20T13:36:50.896Z,2.45
2023-03-20T13:39:23.652Z,2.78
2023-03-20T13:41:52.156Z,2.53
2023-03-20T13:44:24.016Z,2.80
2023-03-20T13:46:55.192Z,1.70
2023-03-20T13:49:28.830Z,1.77
2023-03-20T13:52:02.437Z,1.50
2023-03-20T13:54:50.609Z,1.20
2023-03-20T13:57:27.977Z,1.83
2023-03-20T14:00:03.006Z,1.40
2023-03-20T14:02:42.004Z,1.80
2023-03-20T14:05:18.636Z,1.45
2023-03-20T14:07:49.448Z,2.35
2023-03-20T14:10:39.435Z,2.38
2023-03-20T14:13:14.454Z,5.90
2023-03-20T14:15:50.236Z,4.95
2023-03-20T14:18:22.272Z,3.15
2023-03-20T14:20:57.486Z,3.17
2023-03-20T14:23:35.556Z,3.25
2023-03-20T14:26:09.318Z,3.35
2023-03-20T14:28:54.600Z,4.53
2023-03-20T14:31:26.307Z,4.00
2023-03-20T14:34:09.362Z,2.88
2023-03-20T14:36:53.741Z,3.63
2023-03-20T14:39:46.054Z,2.17
2023-03-20T14:42:38.791Z,2.80
2023-03-20T14:45:39.709Z,2.78
2023-03-20T14:48:26.126Z,2.70
2023-03-20T14:51:10.426Z,1.98
2023-03-20T14:53:41.690Z,2.20
2023-03-20T14:56:12.552Z,2.75
2023-03-20T14:58:54.396Z,3.35
2023-03-20T15:01:54.414Z,3.28
2023-03-20T15:04:29.514Z,3.20
2023-03-20T15:07:00.517Z,3.17
2023-03-20T15:09:32.454Z,3.15
2023-03-20T15:12:04.368Z,3.55
2023-03-20T15:14:39.279Z,2.30
2023-03-20T15:17:07.334Z,2.55
2023-03-20T15:19:41.183Z,2.88
2023-03-20T15:22:17.483Z,3.00
2023-03-20T15:24:55.797Z,3.28
2023-03-20T15:27:29.439Z,5.32
2023-03-20T15:29:58.690Z,4.40
2023-03-20T15:32:26.859Z,4.65
2023-03-20T15:34:54.993Z,7.85
2023-03-20T15:37:25.488Z,7.70
2023-03-20T15:39:59.160Z,6.82
2023-03-20T15:42:28.070Z,6.70
2023-03-20T15:44:57.465Z,6.50
2023-03-20T15:47:26.796Z,6.53
2023-03-20T15:49:56.695Z,5.00
2023-03-20T15:52:31.955Z,4.38
2023-03-20T15:55:06.407Z,4.18
2023-03-20T15:57:37.382Z,5.05
2023-03-20T16:00:08.077Z,4.70
2023-03-20T16:02:38.178Z,4.85
2023-03-20T16:05:10.418Z,7.25
2023-03-20T16:07:38.600Z,9.00
2023-03-20T16:10:19.143Z,11.10
2023-03-20T16:12:50.287Z,8.60
2023-03-20T16:15:19.709Z,8.02
2023-03-20T16:17:48.628Z,8.23
2023-03-20T16:20:17.876Z,5.22
2023-03-20T16:22:47.259Z,6.13
2023-03-20T16:25:18.752Z,6.00
2023-03-20T16:27:50.423Z,6.30
2023-03-20T16:30:24.433Z,5.13
2023-03-20T16:32:59.424Z,5.25
2023-03-20T16:35:31.013Z,5.43
2023-03-20T16:38:00.741Z,6.63
2023-03-20T16:40:34.907Z,6.47
2023-03-20T16:43:12.992Z,6.35
2023-03-20T16:45:44.929Z,5.45
2023-03-20T16:48:26.070Z,4.60
2023-03-20T16:50:59.990Z,4.78
2023-03-20T16:53:32.102Z,4.20
2023-03-20T16:56:04.952Z,3.85
2023-03-20T16:58:35.127Z,4.22
2023-03-20T17:01:06.156Z,4.28
2023-03-20T17:03:38.109Z,5.35
2023-03-20T17:06:10.878Z,6.43
2023-03-20T17:08:43.238Z,6.25
2023-03-20T17:11:15.078Z,6.43
2023-03-20T17:13:43.942Z,6.97
2023-03-20T17:16:16.975Z,7.50
2023-03-20T17:18:46.796Z,8.10
2023-03-20T17:21:15.170Z,8.75
2023-03-20T17:23:43.237Z,9.20
2023-03-20T17:26:14.023Z,8.35
2023-03-20T17:28:42.512Z,8.30
2023-03-20T17:31:13.999Z,8.75
2023-03-20T17:33:42.116Z,11.98
2023-03-20T17:36:16.917Z,11.07
2023-03-20T17:38:45.019Z,14.57
2023-03-20T17:41:16.335Z,14.13
2023-03-20T17:43:44.753Z,11.57
2023-03-20T17:46:19.029Z,9.82
2023-03-20T17:48:47.851Z,7.55
2023-03-20T17:51:15.971Z,7.07
2023-03-20T17:53:44.061Z,7.53
2023-03-20T17:56:16.434Z,6.30
2023-03-20T17:58:45.672Z,5.05
2023-03-20T18:01:14.274Z,5.60
2023-03-20T18:03:42.532Z,5.90
2023-03-20T18:06:17.055Z,6.82
2023-03-20T18:08:45.416Z,7.13
2023-03-20T18:11:14.854Z,9.70
2023-03-20T18:13:43.295Z,10.65
2023-03-20T18:16:17.590Z,13.10
2023-03-20T18:18:46.143Z,13.25
2023-03-20T18:21:16.675Z,14.90
2023-03-20T18:23:44.931Z,15.30
2023-03-20T18:26:20.593Z,16.05
2023-03-20T18:28:49.013Z,13.60
2023-03-20T18:31:18.938Z,16.55
2023-03-20T18:33:48.511Z,16.35
2023-03-20T18:41:14.059Z,18.40
2023-03-20T18:43:44.660Z,16.15
2023-03-20T18:46:15.195Z,14.48
2023-03-20T18:48:44.195Z,14.05
2023-03-20T18:51:12.652Z,13.40
2023-03-20T18:53:41.695Z,13.27
2023-03-20T18:56:15.400Z,12.00
2023-03-20T18:58:45.651Z,12.43
2023-03-20T19:01:15.547Z,12.35
2023-03-20T19:03:44.705Z,10.63
2023-03-20T19:06:15.522Z,10.90
2023-03-20T19:08:44.353Z,11.85
2023-03-20T19:11:17.845Z,7.43
2023-03-20T19:13:51.010Z,9.40
2023-03-20T19:16:25.349Z,11.73
2023-03-20T19:18:54.185Z,10.75
2023-03-20T19:21:25.984Z,9.68
2023-03-20T19:23:55.192Z,9.52
2023-03-20T19:26:25.936Z,9.80
2023-03-20T19:28:57.227Z,9.73
2023-03-20T19:31:26.435Z,11.68
2023-03-20T19:33:56.008Z,13.65
2023-03-20T19:38:55.731Z,11.48
2023-03-20T19:41:24.138Z,14.93
2023-03-20T19:43:55.231Z,15.52
2023-03-20T19:46:39.146Z,14.80
2023-03-20T19:49:19.684Z,16.00
2023-03-20T19:51:48.439Z,13.93
2023-03-20T19:54:16.662Z,15.85
2023-03-20T19:56:44.778Z,13.75
2023-03-20T19:59:16.198Z,14.45
2023-03-20T20:01:46.898Z,13.15
2023-03-20T20:04:16.134Z,12.40
2023-03-20T20:06:47.158Z,11.10
2023-03-20T20:09:16.131Z,10.13
2023-03-20T20:11:44.256Z,8.50
2023-03-20T20:14:14.981Z,10.18
2023-03-20T20:16:45.344Z,9.50
2023-03-20T20:19:14.962Z,11.18
2023-03-20T20:24:31.474Z,15.82
2023-03-20T20:27:15.949Z,19.05
2023-03-20T20:29:46.922Z,20.27
2023-03-20T20:32:15.294Z,17.80
2023-03-20T20:40:24.742Z,12.18
2023-03-20T20:42:56.118Z,11.15
2023-03-20T20:45:26.376Z,11.50
2023-03-20T20:47:55.286Z,9.77
2023-03-20T20:50:28.319Z,9.25
2023-03-20T20:52:56.916Z,10.88
2023-03-20T20:55:25.658Z,10.90
2023-03-20T20:57:55.544Z,12.13
2023-03-20T21:00:37.134Z,12.43
2023-03-20T21:03:09.596Z,13.18
2023-03-20T21:05:42.861Z,11.43
2023-03-20T21:08:11.972Z,12.73
2023-03-20T21:10:40.207Z,12.18
2023-03-20T21:13:08.550Z,10.80
2023-03-20T21:15:37.329Z,10.90
2023-03-20T21:18:05.796Z,9.30
2023-03-20T21:20:34.573Z,10.45
2023-03-20T21:23:04.031Z,7.68
2023-03-20T21:25:40.017Z,10.95
2023-03-20T21:28:09.898Z,11.90
2023-03-20T21:30:44.260Z,12.10
2023-03-20T21:33:25.085Z,12.48
2023-03-20T21:35:54.411Z,12.23
2023-03-20T21:43:40.775Z,12.45
2023-03-20T22:03:10.383Z,13.73
2023-03-20T22:06:19.482Z,13.40
2023-03-20T22:17:51.107Z,13.20
2023-03-20T22:26:05.488Z,13.07
2023-03-20T22:37:30.142Z,13.73
2023-03-20T22:40:22.623Z,13.48
2023-03-20T22:45:04.022Z,12.82
2023-03-20T22:47:32.623Z,12.27
2023-03-20T22:50:00.714Z,11.77
2023-03-20T22:52:42.030Z,11.68
2023-03-20T22:55:13.961Z,12.45
2023-03-20T22:57:52.971Z,12.68
2023-03-20T23:00:29.234Z,13.43
2023-03-20T23:05:42.318Z,13.07
2023-03-20T23:08:12.793Z,12.60
2023-03-20T23:10:44.281Z,13.40
2023-03-20T23:13:12.483Z,13.18
2023-03-20T23:15:41.935Z,12.80
2023-03-20T23:18:10.611Z,13.45
2023-03-20T23:20:38.810Z,13.80
2023-03-20T23:23:06.983Z,13.15
2023-03-20T23:25:40.016Z,13.40
2023-03-20T23:28:09.320Z,13.85
2023-03-20T23:30:46.570Z,14.48
2023-03-20T23:33:17.518Z,14.63
2023-03-20T23:35:46.338Z,13.05
2023-03-20T23:38:14.444Z,10.35
2023-03-20T23:40:42.487Z,12.38
2023-03-20T23:43:10.605Z,12.77
2023-03-20T23:45:38.899Z,12.45
2023-03-20T23:48:07.319Z,12.60
2023-03-20T23:50:51.853Z,14.32
2023-03-20T23:53:21.411Z,13.85
2023-03-20T23:55:51.352Z,12.55
2023-03-20T23:58:20.547Z,13.93
